Time;durP1;ratioP1;P1;durP2;ratioP2;P2;SDS_P1;SDS_P2;PMS_P1;PMS_P2;Temp;Humidity;BMP_temperature;BMP_pressure;BME280_temperature;BME280_humidity;BME280_pressure;Samples;Min_cycle;Max_cycle;Signal;HPM_P1;HPM_P2
2024/01/06 01:01:36;;;;;;;32.83;15.30;;;;;;;-148.15;100.00;61821.78;5032356;28;20513;-92
2024/01/06 01:26:59;;;;;;;34.10;16.10;;;;;;;-148.15;100.00;61821.78;4966555;28;20022;-94
2024/01/06 01:29:27;;;;;;;30.57;14.07;;;;;;;-148.15;100.00;61821.78;4957249;29;20035;-94
2024/01/06 01:31:53;;;;;;;29.77;14.32;;;;;;;-148.15;100.00;61821.78;4971510;29;20103;-92
2024/01/06 01:38:25;;;;;;;;;;;;;;;;;;;;;
2024/01/06 01:44:51;;;;;;;28.65;14.43;;;;;;;-148.15;100.00;61821.78;5017393;28;20072;-94
2024/01/06 02:11:16;;;;;;;;;;;;;;;;;;;;;
2024/01/06 02:13:51;;;;;;;19.77;10.80;;;;;;;-148.15;100.00;61821.78;4914767;29;20040;-93
2024/01/06 02:22:23;;;;;;;18.98;10.10;;;;;;;-148.15;100.00;61821.78;5002356;23;20058;-94
2024/01/06 02:30:47;;;;;;;19.05;10.45;;;;;;;-148.15;100.00;61821.78;5019787;28;20135;-92
2024/01/06 02:34:01;;;;;;;19.48;10.02;;;;;;;-148.15;100.00;61821.78;5019400;28;20014;-94
2024/01/06 02:37:19;;;;;;;18.35;9.40;;;;;;;-148.15;100.00;61821.78;4951445;28;20048;-94
2024/01/06 02:40:32;;;;;;;;;;;;;;;;;;;;;
2024/01/06 02:43:07;;;;;;;15.23;8.33;;;;;;;-148.15;100.00;61821.78;4938407;29;20472;-94
2024/01/06 02:45:50;;;;;;;16.00;9.33;;;;;;;-148.15;100.00;61821.78;4925080;29;20291;-93
2024/01/06 02:51:31;;;;;;;;;;;;;;;;;;;;;
2024/01/06 03:02:42;;;;;;;15.43;9.10;;;;;;;-148.15;100.00;61821.78;5015673;28;20316;-92
2024/01/06 03:05:16;;;;;;;13.48;8.93;;;;;;;-148.15;100.00;61821.78;4950394;28;20539;-93
2024/01/06 03:21:32;;;;;;;12.90;7.03;;;;;;;-148.15;100.00;61821.78;5036219;28;20044;-94
2024/01/06 03:31:35;;;;;;;10.57;6.88;;;;;;;-148.15;100.00;61821.78;4898077;29;20040;-92
2024/01/06 03:34:16;;;;;;;8.87;5.73;;;;;;;-148.15;100.00;61821.78;4890873;29;20468;-94
2024/01/06 03:47:06;;;;;;;9.02;5.65;;;;;;;-148.15;100.00;61821.78;4988607;28;20062;-93
2024/01/06 03:56:48;;;;;;;8.90;5.87;;;;;;;-148.15;100.00;61821.78;4937183;28;20302;-93
2024/01/06 03:59:14;;;;;;;9.95;5.63;;;;;;;-148.15;100.00;61821.78;4995757;28;20027;-94
2024/01/06 04:01:40;;;;;;;9.57;5.60;;;;;;;-148.15;100.00;61821.78;4996183;28;20462;-94
2024/01/06 04:04:19;;;;;;;8.23;6.17;;;;;;;-148.15;100.00;61821.78;4996218;28;20278;-94
2024/01/06 04:06:45;;;;;;;9.15;6.75;;;;;;;-148.15;100.00;61821.78;4996499;28;20030;-94
2024/01/06 04:13:25;;;;;;;8.25;6.07;;;;;;;-148.15;100.00;61821.78;4997341;28;20105;-92
2024/01/06 04:23:34;;;;;;;11.05;7.35;;;;;;;-148.15;100.00;61821.78;5002740;28;20053;-94
2024/01/06 04:29:53;;;;;;;12.77;7.88;;;;;;;-148.15;100.00;61821.78;4997767;28;20069;-93
2024/01/06 04:39:45;;;;;;;10.50;7.00;;;;;;;-148.15;100.00;61821.78;4995065;28;20356;-96
2024/01/06 04:42:11;;;;;;;12.57;7.07;;;;;;;-148.15;100.00;61821.78;4940020;28;20049;-93
2024/01/06 04:50:40;;;;;;;12.43;7.35;;;;;;;-148.15;100.00;61821.78;5036104;23;20042;-95
2024/01/06 05:24:05;;;;;;;8.18;5.68;;;;;;;-148.15;100.00;61821.78;5045465;28;20037;-93
2024/01/06 05:26:30;;;;;;;9.27;6.38;;;;;;;-148.15;100.00;61821.78;5038831;23;20101;-93
2024/01/06 05:29:05;;;;;;;8.67;5.77;;;;;;;-148.15;100.00;61821.78;5022560;28;20026;-93
2024/01/06 05:32:03;;;;;;;10.77;6.35;;;;;;;-148.15;100.00;61821.78;5014942;28;20037;-93
2024/01/06 05:35:20;;;;;;;9.68;5.75;;;;;;;-148.15;100.00;61821.78;4979126;28;20545;-93
2024/01/06 05:41:38;;;;;;;;;;;;;;;;;;;;;
2024/01/06 05:44:04;;;;;;;7.78;5.18;;;;;;;-148.15;100.00;61821.78;5015247;28;20026;-93
2024/01/06 05:47:13;;;;;;;8.33;5.33;;;;;;;-148.15;100.00;61821.78;5022733;28;20046;-93
2024/01/06 05:53:22;;;;;;;9.30;5.75;;;;;;;-148.15;100.00;61821.78;4973599;28;20042;-94
2024/01/06 05:56:38;;;;;;;9.10;5.22;;;;;;;-148.15;100.00;61821.78;4984787;28;20043;-94
2024/01/06 06:02:14;;;;;;;7.80;5.05;;;;;;;-148.15;100.00;61821.78;4934603;29;20555;-94
2024/01/06 06:05:21;;;;;;;;;;;;;;;;;;;;;
2024/01/06 06:08:24;;;;;;;8.23;5.50;;;;;;;-148.15;100.00;61821.78;4934396;29;20287;-94
2024/01/06 06:20:59;;;;;;;9.07;5.07;;;;;;;-148.15;100.00;61821.78;4859066;29;20275;-94
2024/01/06 06:24:11;;;;;;;8.83;4.80;;;;;;;-148.15;100.00;61821.78;4869345;29;20581;-95
2024/01/06 06:26:37;;;;;;;7.63;5.33;;;;;;;-148.15;100.00;61821.78;4852495;29;20297;-93
2024/01/06 06:32:36;;;;;;;;;;;;;;;;;;;;;
2024/01/06 06:36:04;;;;;;;;;;;;;;;;;;;;;
2024/01/06 06:41:36;;;;;;;6.88;4.35;;;;;;;-148.15;100.00;61821.78;4888540;29;20057;-93
2024/01/06 06:44:14;;;;;;;7.87;4.50;;;;;;;-148.15;100.00;61821.78;4958912;29;20027;-94
2024/01/06 06:50:44;;;;;;;6.18;4.28;;;;;;;-148.15;100.00;61821.78;4993373;28;20081;-94
2024/01/06 06:53:35;;;;;;;9.27;4.88;;;;;;;-148.15;100.00;61821.78;4973443;28;20490;-93
2024/01/06 07:01:48;;;;;;;8.10;5.45;;;;;;;-148.15;100.00;61821.78;5010631;28;20097;-94
2024/01/06 07:07:51;;;;;;;;;;;;;;;;;;;;;
2024/01/06 07:10:51;;;;;;;13.43;6.63;;;;;;;-148.15;100.00;61821.78;4895459;29;20040;-94
2024/01/06 07:13:23;;;;;;;11.10;5.93;;;;;;;-148.15;100.00;61821.78;4899396;29;20136;-95
2024/01/06 07:16:13;;;;;;;10.77;6.40;;;;;;;-148.15;100.00;61821.78;4898853;29;20645;-94
2024/01/06 07:18:57;;;;;;;11.82;6.75;;;;;;;-148.15;100.00;61821.78;4843016;29;20057;-92
2024/01/06 07:22:12;;;;;;;10.50;6.43;;;;;;;-148.15;100.00;61821.78;4997557;23;20049;-95
2024/01/06 07:24:47;;;;;;;11.45;6.38;;;;;;;-148.15;100.00;61821.78;5005703;28;20040;-95
2024/01/06 07:27:26;;;;;;;12.95;7.80;;;;;;;-148.15;100.00;61821.78;4999770;28;20121;-95
2024/01/06 07:29:52;;;;;;;11.07;6.90;;;;;;;-148.15;100.00;61821.78;4956334;28;20043;-95
2024/01/06 07:41:37;;;;;;;13.05;7.45;;;;;;;-148.15;100.00;61821.78;1293615;26;21243;-94
2024/01/06 07:44:27;;;;;;;14.40;8.23;;;;;;;-148.15;100.00;61821.78;5036093;28;20041;-94
2024/01/06 07:47:17;;;;;;;11.13;6.88;;;;;;;-148.15;100.00;61821.78;5024927;28;20038;-94
2024/01/06 07:49:46;;;;;;;16.58;7.80;;;;;;;-148.15;100.00;61821.78;5036256;28;20010;-94
2024/01/06 07:52:15;;;;;;;13.60;8.30;;;;;;;-148.15;100.00;61821.78;5000186;28;20039;-94
2024/01/06 07:58:21;;;;;;;13.10;6.78;;;;;;;-148.15;100.00;61821.78;4994392;28;20477;-94
2024/01/06 08:00:52;;;;;;;11.40;7.88;;;;;;;-148.15;100.00;61821.78;4994020;28;20049;-96
2024/01/06 08:03:18;;;;;;;12.27;6.55;;;;;;;-148.15;100.00;61821.78;4994222;28;20031;-93
2024/01/06 08:05:43;;;;;;;11.52;7.07;;;;;;;-148.15;100.00;61821.78;4977883;28;20041;-93
2024/01/06 08:08:09;;;;;;;14.53;7.50;;;;;;;-148.15;100.00;61821.78;5001874;28;20129;-93
2024/01/06 08:10:34;;;;;;;12.63;8.00;;;;;;;-148.15;100.00;61821.78;5020466;28;20029;-93
2024/01/06 08:13:00;;;;;;;13.70;7.70;;;;;;;-148.15;100.00;61821.78;5027532;28;20085;-93
2024/01/06 08:15:47;;;;;;;16.17;8.60;;;;;;;-148.15;100.00;61821.78;5016014;28;20030;-93
2024/01/06 08:18:12;;;;;;;14.98;8.10;;;;;;;-148.15;100.00;61821.78;5013869;28;20410;-93
2024/01/06 08:20:40;;;;;;;14.57;8.70;;;;;;;-148.15;100.00;61821.78;5015258;28;20033;-93
2024/01/06 08:23:05;;;;;;;15.25;8.50;;;;;;;-148.15;100.00;61821.78;4997712;28;20018;-95
2024/01/06 08:25:31;;;;;;;13.98;7.80;;;;;;;-148.15;100.00;61821.78;4996445;28;20034;-93
2024/01/06 08:27:56;;;;;;;14.43;8.03;;;;;;;-148.15;100.00;61821.78;5013795;28;20018;-92
2024/01/06 08:30:30;;;;;;;14.70;8.37;;;;;;;-148.15;100.00;61821.78;5013374;28;20064;-93
2024/01/06 08:32:55;;;;;;;17.58;9.65;;;;;;;-148.15;100.00;61821.78;5014406;28;20038;-95
2024/01/06 08:35:21;;;;;;;22.17;12.50;;;;;;;-148.15;100.00;61821.78;5456242;23;20008;-93
2024/01/06 08:37:46;;;;;;;14.48;9.30;;;;;;;-148.15;100.00;61821.78;5014880;28;20034;-94
2024/01/06 08:40:13;;;;;;;16.83;9.40;;;;;;;-148.15;100.00;61821.78;5014634;28;20120;-94
2024/01/06 08:42:41;;;;;;;17.55;8.45;;;;;;;-148.15;100.00;61821.78;4997436;28;20474;-94
2024/01/06 08:45:06;;;;;;;18.33;10.00;;;;;;;-148.15;100.00;61821.78;5014050;28;20030;-93
2024/01/06 08:47:47;;;;;;;17.23;9.50;;;;;;;-148.15;100.00;61821.78;4996307;28;20040;-93
2024/01/06 08:50:13;;;;;;;16.00;8.77;;;;;;;-148.15;100.00;61821.78;4996722;28;20022;-93
2024/01/06 08:52:57;;;;;;;14.00;8.57;;;;;;;-148.15;100.00;61821.78;4997356;28;20112;-94
2024/01/06 08:55:24;;;;;;;14.30;8.05;;;;;;;-148.15;100.00;61821.78;5020138;28;20093;-92
2024/01/06 08:57:49;;;;;;;13.07;8.83;;;;;;;-148.15;100.00;61821.78;4997312;28;20026;-94
2024/01/06 09:00:24;;;;;;;16.05;9.07;;;;;;;-148.15;100.00;61821.78;5017186;28;20085;-93
2024/01/06 09:02:49;;;;;;;21.80;13.60;;;;;;;-148.15;100.00;61821.78;5056661;23;20067;-93
2024/01/06 09:05:15;;;;;;;17.90;11.43;;;;;;;-148.15;100.00;61821.78;5036505;28;20755;-92
2024/01/06 09:07:40;;;;;;;18.77;10.90;;;;;;;-148.15;100.00;61821.78;5036636;28;20082;-94
2024/01/06 09:10:09;;;;;;;14.33;9.47;;;;;;;-148.15;100.00;61821.78;5036124;28;20559;-94
2024/01/06 09:12:38;;;;;;;16.30;9.90;;;;;;;-148.15;100.00;61821.78;5037966;28;20020;-94
2024/01/06 09:15:04;;;;;;;14.32;9.32;;;;;;;-148.15;100.00;61821.78;5053661;28;20021;-94
2024/01/06 09:17:29;;;;;;;16.17;8.87;;;;;;;-148.15;100.00;61821.78;5053907;28;20087;-93
2024/01/06 09:19:59;;;;;;;15.57;9.40;;;;;;;-148.15;100.00;61821.78;5053405;28;20055;-94
2024/01/06 09:22:39;;;;;;;15.20;8.73;;;;;;;-148.15;100.00;61821.78;5011584;28;20041;-94
2024/01/06 09:25:14;;;;;;;15.77;9.60;;;;;;;-148.15;100.00;61821.78;5053667;28;20083;-93
2024/01/06 09:27:41;;;;;;;14.17;8.60;;;;;;;-148.15;100.00;61821.78;5053620;28;20029;-93
2024/01/06 09:30:08;;;;;;;14.53;8.40;;;;;;;-148.15;100.00;61821.78;5035568;28;20778;-94
2024/01/06 09:38:30;;;;;;;14.00;8.45;;;;;;;-148.15;100.00;61821.78;1488811;26;20045;-92
2024/01/06 09:40:58;;;;;;;12.30;8.23;;;;;;;-148.15;100.00;61821.78;5068755;28;20052;-93
2024/01/06 09:43:23;;;;;;;13.43;8.05;;;;;;;-148.15;100.00;61821.78;5053849;28;20488;-94
2024/01/06 09:46:05;;;;;;;14.23;7.57;;;;;;;-148.15;100.00;61821.78;5058682;28;20116;-93
2024/01/06 09:48:44;;;;;;;10.35;6.95;;;;;;;-148.15;100.00;61821.78;5050949;28;20104;-92
2024/01/06 09:51:11;;;;;;;11.30;7.53;;;;;;;-148.15;100.00;61821.78;5060518;28;20021;-94
2024/01/06 09:53:47;;;;;;;12.07;8.07;;;;;;;-148.15;100.00;61821.78;5064020;28;20021;-93
2024/01/06 09:56:17;;;;;;;12.80;7.80;;;;;;;-148.15;100.00;61821.78;5062069;28;20326;-93
2024/01/06 09:58:44;;;;;;;10.20;6.65;;;;;;;-148.15;100.00;61821.78;5040954;28;20033;-94
2024/01/06 10:01:10;;;;;;;11.77;7.45;;;;;;;-148.15;100.00;61821.78;5036194;28;20047;-94
2024/01/06 10:03:36;;;;;;;10.65;7.20;;;;;;;-148.15;100.00;61821.78;5054327;28;20021;-93
2024/01/06 10:09:36;;;;;;;11.90;7.20;;;;;;;-148.15;100.00;61821.78;4994623;28;20418;-93
2024/01/06 10:15:25;;;;;;;8.57;6.43;;;;;;;-148.15;100.00;61821.78;4993641;28;20045;-94
2024/01/06 10:17:53;;;;;;;12.52;7.10;;;;;;;-148.15;100.00;61821.78;4993548;28;20034;-92
2024/01/06 10:20:20;;;;;;;11.80;7.20;;;;;;;-148.15;100.00;61821.78;4994228;28;20109;-92
2024/01/06 10:22:45;;;;;;;12.38;7.40;;;;;;;-148.15;100.00;61821.78;4994583;28;20022;-93
2024/01/06 10:27:47;;;;;;;10.10;7.05;;;;;;;-148.15;100.00;61821.78;5135997;23;20067;-93
2024/01/06 10:30:14;;;;;;;11.05;6.78;;;;;;;-148.15;100.00;61821.78;4979763;28;20073;-94
2024/01/06 10:33:23;;;;;;;12.75;7.30;;;;;;;-148.15;100.00;61821.78;4989057;28;20038;-93
2024/01/06 10:35:49;;;;;;;11.43;6.50;;;;;;;-148.15;100.00;61821.78;4984662;28;20125;-94
2024/01/06 10:38:18;;;;;;;12.35;7.45;;;;;;;-148.15;100.00;61821.78;5015942;28;20041;-94
2024/01/06 10:41:28;;;;;;;12.00;7.88;;;;;;;-148.15;100.00;61821.78;4999116;28;20018;-93
2024/01/06 10:43:55;;;;;;;10.77;7.03;;;;;;;-148.15;100.00;61821.78;5015591;28;20018;-94
2024/01/06 10:46:25;;;;;;;12.02;7.18;;;;;;;-148.15;100.00;61821.78;5000842;28;20028;-93
2024/01/06 10:49:10;;;;;;;11.67;7.80;;;;;;;-148.15;100.00;61821.78;5019812;28;20015;-94
2024/01/06 11:01:12;;;;;;;10.75;7.20;;;;;;;-148.15;100.00;61821.78;4951440;28;20044;-94
2024/01/06 11:03:49;;;;;;;10.25;6.65;;;;;;;-148.15;100.00;61821.78;4980207;28;20018;-93
2024/01/06 11:06:40;;;;;;;9.90;6.30;;;;;;;-148.15;100.00;61821.78;5022823;23;20493;-93
2024/01/06 11:12:27;;;;;;;9.95;6.32;;;;;;;-148.15;100.00;61821.78;4957425;29;20123;-95
2024/01/06 11:15:05;;;;;;;8.95;6.45;;;;;;;-148.15;100.00;61821.78;5013879;28;20077;-93
2024/01/06 11:17:53;;;;;;;10.73;6.53;;;;;;;-148.15;100.00;61821.78;5016282;28;20297;-94
2024/01/06 11:20:22;;;;;;;13.13;6.97;;;;;;;-148.15;100.00;61821.78;5038894;28;20285;-94
2024/01/06 11:22:48;;;;;;;8.73;6.25;;;;;;;-148.15;100.00;61821.78;5021809;28;20074;-95
2024/01/06 11:25:29;;;;;;;8.57;6.20;;;;;;;-148.15;100.00;61821.78;5020966;28;20034;-95
2024/01/06 11:27:57;;;;;;;10.10;6.35;;;;;;;-148.15;100.00;61821.78;5034491;28;20018;-95
2024/01/06 11:30:42;;;;;;;9.13;6.20;;;;;;;-148.15;100.00;61821.78;5023359;28;20022;-95
2024/01/06 11:33:28;;;;;;;10.10;6.83;;;;;;;-148.15;100.00;61821.78;5020996;28;20030;-95
2024/01/06 11:35:54;;;;;;;9.88;6.50;;;;;;;-148.15;100.00;61821.78;5037964;28;20116;-95
2024/01/06 11:38:19;;;;;;;13.15;8.15;;;;;;;-148.15;100.00;61821.78;5038273;28;20057;-96
2024/01/06 11:40:50;;;;;;;10.30;6.97;;;;;;;-148.15;100.00;61821.78;5001202;28;20029;-95
2024/01/06 11:43:17;;;;;;;10.65;7.55;;;;;;;-148.15;100.00;61821.78;5000579;28;20053;-94
2024/01/06 11:45:43;;;;;;;9.45;6.00;;;;;;;-148.15;100.00;61821.78;5024196;28;20026;-95
2024/01/06 11:48:31;;;;;;;13.13;6.80;;;;;;;-148.15;100.00;61821.78;5020564;28;20030;-94
2024/01/06 11:50:58;;;;;;;11.43;7.05;;;;;;;-148.15;100.00;61821.78;4996264;28;20041;-94
2024/01/06 11:53:27;;;;;;;8.52;6.55;;;;;;;-148.15;100.00;61821.78;4998526;28;20061;-94
2024/01/06 11:55:53;;;;;;;8.73;7.35;;;;;;;-148.15;100.00;61821.78;4997839;28;20052;-93
2024/01/06 11:58:18;;;;;;;8.70;6.17;;;;;;;-148.15;100.00;61821.78;5016522;28;20025;-94
2024/01/06 12:00:56;;;;;;;10.17;5.40;;;;;;;-148.15;100.00;61821.78;5019949;28;20022;-94
2024/01/06 12:03:26;;;;;;;10.57;5.72;;;;;;;-148.15;100.00;61821.78;5019732;28;20030;-94
2024/01/06 12:06:00;;;;;;;9.13;6.20;;;;;;;-148.15;100.00;61821.78;5018272;28;20046;-95
2024/01/06 12:08:47;;;;;;;10.45;6.13;;;;;;;-148.15;100.00;61821.78;5008094;28;20022;-94
2024/01/06 12:11:18;;;;;;;9.70;5.90;;;;;;;-148.15;100.00;61821.78;4998090;28;20030;-96
2024/01/06 12:13:46;;;;;;;11.43;5.70;;;;;;;-148.15;100.00;61821.78;4998603;28;20424;-94
2024/01/06 12:16:38;;;;;;;11.88;5.65;;;;;;;-148.15;100.00;61821.78;5016417;28;20105;-95
2024/01/06 12:19:04;;;;;;;8.00;6.28;;;;;;;-148.15;100.00;61821.78;5018652;28;20029;-95
2024/01/06 12:21:46;;;;;;;13.50;6.15;;;;;;;-148.15;100.00;61821.78;5001191;28;20026;-94
2024/01/06 12:24:20;;;;;;;12.70;7.87;;;;;;;-148.15;100.00;61821.78;5039256;23;20133;-94
2024/01/06 12:26:46;;;;;;;11.10;7.13;;;;;;;-148.15;100.00;61821.78;4998350;28;20227;-95
2024/01/06 12:29:17;;;;;;;11.68;7.70;;;;;;;-148.15;100.00;61821.78;5006411;28;20112;-95
2024/01/06 12:31:43;;;;;;;12.68;7.72;;;;;;;-148.15;100.00;61821.78;5003029;28;20030;-94
2024/01/06 12:34:10;;;;;;;13.10;8.38;;;;;;;-148.15;100.00;61821.78;5008066;28;20026;-94
2024/01/06 12:36:41;;;;;;;12.63;7.17;;;;;;;-148.15;100.00;61821.78;5007855;28;20094;-95
2024/01/06 12:39:57;;;;;;;15.05;7.72;;;;;;;-148.15;100.00;61821.78;4997023;28;20050;-95
2024/01/06 12:42:00;;;;;;;10.68;7.40;;;;;;;-148.15;100.00;61821.78;4998459;28;20030;-95
2024/01/06 12:44:29;;;;;;;12.02;7.18;;;;;;;-148.15;100.00;61821.78;5013750;23;20070;-94
2024/01/06 12:47:05;;;;;;;;;;;;;;;;;;;;;
2024/01/06 13:01:25;;;;;;;10.93;6.53;;;;;;;-148.15;100.00;61821.78;5792908;23;20287;-94
2024/01/06 13:04:09;;;;;;;11.87;7.40;;;;;;;-148.15;100.00;61821.78;5006367;28;20023;-92
2024/01/06 13:06:36;;;;;;;19.17;10.48;;;;;;;-148.15;100.00;61821.78;4980326;28;20043;-94
2024/01/06 13:09:16;;;;;;;16.95;11.10;;;;;;;-148.15;100.00;61821.78;4989527;28;20126;-93
2024/01/06 13:11:47;;;;;;;22.77;13.83;;;;;;;-148.15;100.00;61821.78;4969314;28;20046;-93
2024/01/06 13:14:26;;;;;;;10.13;7.63;;;;;;;-148.15;100.00;61821.78;4977122;28;20383;-94
2024/01/06 13:17:10;;;;;;;11.77;7.03;;;;;;;-148.15;100.00;61821.78;4994502;28;20096;-93
2024/01/06 13:19:35;;;;;;;15.48;8.45;;;;;;;-148.15;100.00;61821.78;4976587;28;20027;-93
2024/01/06 13:22:14;;;;;;;10.63;5.80;;;;;;;-148.15;100.00;61821.78;4994080;28;20022;-92
2024/01/06 13:24:40;;;;;;;7.63;5.30;;;;;;;-148.15;100.00;61821.78;4976822;28;20037;-92
2024/01/06 13:27:06;;;;;;;8.33;5.80;;;;;;;-148.15;100.00;61821.78;4976514;28;20474;-94
2024/01/06 13:29:32;;;;;;;7.60;5.23;;;;;;;-148.15;100.00;61821.78;4976999;28;20618;-94
2024/01/06 13:31:59;;;;;;;6.90;4.63;;;;;;;-148.15;100.00;61821.78;4993268;28;20037;-93
2024/01/06 13:34:29;;;;;;;5.82;4.40;;;;;;;-148.15;100.00;61821.78;4973752;28;20073;-93
2024/01/06 13:36:55;;;;;;;6.27;4.33;;;;;;;-148.15;100.00;61821.78;4991669;28;20113;-93
2024/01/06 13:39:35;;;;;;;5.43;4.20;;;;;;;-148.15;100.00;61821.78;4977589;28;20045;-94
2024/01/06 13:42:07;;;;;;;6.35;4.47;;;;;;;-148.15;100.00;61821.78;4979182;28;20105;-93
2024/01/06 13:44:33;;;;;;;5.97;4.33;;;;;;;-148.15;100.00;61821.78;4999862;28;20038;-95
2024/01/06 13:47:01;;;;;;;6.30;4.50;;;;;;;-148.15;100.00;61821.78;5009697;28;20034;-92
2024/01/06 13:49:27;;;;;;;6.72;4.38;;;;;;;-148.15;100.00;61821.78;5009124;28;20034;-93
2024/01/06 13:51:57;;;;;;;6.72;4.03;;;;;;;-148.15;100.00;61821.78;4976589;28;20026;-93
2024/01/06 13:59:46;;;;;;;6.55;3.88;;;;;;;-148.15;100.00;61821.78;5818054;23;20117;-94
2024/01/06 14:03:08;;;;;;;5.25;3.75;;;;;;;-148.15;100.00;61821.78;4994005;28;20030;-91
2024/01/06 14:05:34;;;;;;;5.05;4.00;;;;;;;-148.15;100.00;61821.78;4997666;28;20023;-93
2024/01/06 14:11:43;;;;;;;7.70;4.90;;;;;;;-148.15;100.00;61821.78;4972594;28;20110;-93
2024/01/06 14:14:47;;;;;;;10.87;5.10;;;;;;;-148.15;100.00;61821.78;4964304;28;20287;-91
2024/01/06 14:17:19;;;;;;;5.15;4.50;;;;;;;-148.15;100.00;61821.78;4915408;29;20017;-92
2024/01/06 14:19:46;;;;;;;7.57;5.55;;;;;;;-148.15;100.00;61821.78;4917822;29;20035;-93
2024/01/06 14:22:20;;;;;;;7.85;5.35;;;;;;;-148.15;100.00;61821.78;4968176;28;20045;-94
2024/01/06 14:24:46;;;;;;;7.95;4.93;;;;;;;-148.15;100.00;61821.78;4987982;28;20088;-93
2024/01/06 14:27:11;;;;;;;9.87;6.10;;;;;;;-148.15;100.00;61821.78;5007321;28;20536;-93
2024/01/06 14:29:39;;;;;;;9.68;6.88;;;;;;;-148.15;100.00;61821.78;5003820;28;20041;-93
2024/01/06 14:32:05;;;;;;;9.10;6.50;;;;;;;-148.15;100.00;61821.78;4996995;28;20062;-92
2024/01/06 14:34:30;;;;;;;9.68;6.05;;;;;;;-148.15;100.00;61821.78;5067362;23;20417;-93
2024/01/06 14:36:55;;;;;;;13.07;6.90;;;;;;;-148.15;100.00;61821.78;5019126;28;20037;-91
2024/01/06 14:39:43;;;;;;;10.90;6.10;;;;;;;-148.15;100.00;61821.78;5019104;28;20586;-93
2024/01/06 14:42:23;;;;;;;11.43;6.60;;;;;;;-148.15;100.00;61821.78;5018708;28;20547;-94
2024/01/06 14:45:05;;;;;;;;;;;;;;;;;;;;;
2024/01/06 14:47:37;;;;;;;13.55;6.75;;;;;;;-148.15;100.00;61821.78;4999293;28;20041;-93
2024/01/06 14:50:03;;;;;;;17.88;7.60;;;;;;;-148.15;100.00;61821.78;4980916;28;20494;-92
2024/01/06 14:53:10;;;;;;;13.47;7.03;;;;;;;-148.15;100.00;61821.78;4998987;28;20037;-93
2024/01/06 14:55:37;;;;;;;12.43;7.23;;;;;;;-148.15;100.00;61821.78;5051805;23;20313;-94
2024/01/06 14:58:03;;;;;;;9.70;6.20;;;;;;;-148.15;100.00;61821.78;4981749;28;20406;-93
2024/01/06 15:00:50;;;;;;;15.15;7.63;;;;;;;-148.15;100.00;61821.78;4990124;28;20041;-93
2024/01/06 15:04:07;;;;;;;10.82;7.40;;;;;;;-148.15;100.00;61821.78;5000057;28;20030;-92
2024/01/06 15:13:46;;;;;;;17.13;9.93;;;;;;;-148.15;100.00;61821.78;4970007;28;20336;-93
2024/01/06 15:17:05;;;;;;;14.98;8.43;;;;;;;-148.15;100.00;61821.78;4946531;29;20469;-94
2024/01/06 15:19:52;;;;;;;15.00;8.80;;;;;;;-148.15;100.00;61821.78;4943655;29;20031;-94
2024/01/06 15:22:17;;;;;;;11.88;7.65;;;;;;;-148.15;100.00;61821.78;4960202;28;20027;-94
2024/01/06 15:24:44;;;;;;;14.53;8.47;;;;;;;-148.15;100.00;61821.78;4960744;28;20031;-93
2024/01/06 15:27:10;;;;;;;13.13;8.25;;;;;;;-148.15;100.00;61821.78;4969275;28;20427;-94
2024/01/06 15:29:40;;;;;;;13.13;7.97;;;;;;;-148.15;100.00;61821.78;4965255;28;20081;-94
2024/01/06 15:32:08;;;;;;;17.13;9.60;;;;;;;-148.15;100.00;61821.78;4962148;28;20490;-95
2024/01/06 15:34:35;;;;;;;15.27;10.00;;;;;;;-148.15;100.00;61821.78;4961763;28;20370;-95
2024/01/06 15:37:36;;;;;;;17.65;9.18;;;;;;;-148.15;100.00;61821.78;4979811;28;20077;-95
2024/01/06 15:40:13;;;;;;;14.18;9.60;;;;;;;-148.15;100.00;61821.78;4961694;28;20145;-94
2024/01/06 15:43:37;;;;;;;16.83;9.13;;;;;;;-148.15;100.00;61821.78;4964564;28;20035;-95
2024/01/06 15:46:03;;;;;;;11.30;7.82;;;;;;;-148.15;100.00;61821.78;4969461;28;20065;-93
2024/01/06 15:48:40;;;;;;;15.97;9.50;;;;;;;-148.15;100.00;61821.78;4997402;28;20027;-94
2024/01/06 15:51:06;;;;;;;18.77;9.52;;;;;;;-148.15;100.00;61821.78;4986700;28;20370;-93
2024/01/06 15:54:21;;;;;;;14.57;9.37;;;;;;;-148.15;100.00;61821.78;4966278;28;20090;-93
2024/01/06 15:56:55;;;;;;;14.82;9.75;;;;;;;-148.15;100.00;61821.78;4983551;28;20084;-94
2024/01/06 15:59:20;;;;;;;15.55;9.40;;;;;;;-148.15;100.00;61821.78;4973022;28;20042;-93
2024/01/06 16:02:04;;;;;;;15.83;9.50;;;;;;;-148.15;100.00;61821.78;4966398;28;20038;-93
2024/01/06 16:07:06;;;;;;;13.23;8.55;;;;;;;-148.15;100.00;61821.78;4908218;23;20440;-92
2024/01/06 16:09:31;;;;;;;16.77;8.23;;;;;;;-148.15;100.00;61821.78;4983612;28;20027;-93
2024/01/06 16:15:23;;;;;;;12.65;7.05;;;;;;;-148.15;100.00;61821.78;4939753;29;20054;-93
2024/01/06 16:21:24;;;;;;;16.30;8.50;;;;;;;-148.15;100.00;61821.78;4941077;29;20286;-93
2024/01/06 16:26:52;;;;;;;12.60;8.27;;;;;;;-148.15;100.00;61821.78;5109918;23;20652;-94
2024/01/06 16:29:17;;;;;;;12.40;7.50;;;;;;;-148.15;100.00;61821.78;4995142;28;20022;-93
2024/01/06 16:31:43;;;;;;;13.57;7.43;;;;;;;-148.15;100.00;61821.78;4994484;28;20022;-94
2024/01/06 16:34:08;;;;;;;13.43;8.20;;;;;;;-148.15;100.00;61821.78;4976457;28;20023;-93
2024/01/06 16:36:34;;;;;;;12.57;8.40;;;;;;;-148.15;100.00;61821.78;4982753;28;20121;-93
2024/01/06 16:39:36;;;;;;;12.00;7.47;;;;;;;-148.15;100.00;61821.78;4980437;28;20035;-94
2024/01/06 16:42:03;;;;;;;16.60;9.63;;;;;;;-148.15;100.00;61821.78;4989283;28;20034;-94
2024/01/06 16:44:28;;;;;;;13.90;7.78;;;;;;;-148.15;100.00;61821.78;5000492;28;20034;-94
2024/01/06 16:46:57;;;;;;;10.60;7.20;;;;;;;-148.15;100.00;61821.78;5008333;28;20019;-93
2024/01/06 16:49:22;;;;;;;12.77;8.60;;;;;;;-148.15;100.00;61821.78;4992789;28;20398;-93
2024/01/06 16:51:47;;;;;;;15.43;8.13;;;;;;;-148.15;100.00;61821.78;4993961;28;20022;-93
2024/01/06 16:54:13;;;;;;;13.00;7.60;;;;;;;-148.15;100.00;61821.78;4993711;28;20447;-94
2024/01/06 16:56:38;;;;;;;13.33;7.83;;;;;;;-148.15;100.00;61821.78;4994404;28;20033;-94
2024/01/06 16:59:03;;;;;;;13.02;7.50;;;;;;;-148.15;100.00;61821.78;4994848;28;20512;-93
2024/01/06 17:01:29;;;;;;;14.57;8.17;;;;;;;-148.15;100.00;61821.78;4994057;28;20026;-91
2024/01/06 17:03:54;;;;;;;10.00;7.20;;;;;;;-148.15;100.00;61821.78;4993581;28;20022;-93
2024/01/06 17:06:21;;;;;;;13.83;7.47;;;;;;;-148.15;100.00;61821.78;4994275;28;20122;-94
2024/01/06 17:08:46;;;;;;;12.18;7.50;;;;;;;-148.15;100.00;61821.78;4993347;28;20478;-92
2024/01/06 17:11:14;;;;;;;12.90;7.13;;;;;;;-148.15;100.00;61821.78;4976057;28;20121;-92
2024/01/06 17:13:40;;;;;;;14.48;7.80;;;;;;;-148.15;100.00;61821.78;4975880;28;20026;-93
2024/01/06 17:16:05;;;;;;;10.17;7.10;;;;;;;-148.15;100.00;61821.78;4993903;28;20026;-92
2024/01/06 17:18:31;;;;;;;12.18;7.30;;;;;;;-148.15;100.00;61821.78;4993466;28;20037;-92
2024/01/06 17:20:56;;;;;;;10.50;6.83;;;;;;;-148.15;100.00;61821.78;4992963;28;20029;-94
2024/01/06 17:23:21;;;;;;;10.20;5.90;;;;;;;-148.15;100.00;61821.78;4994059;28;20078;-94
2024/01/06 17:25:47;;;;;;;9.23;6.20;;;;;;;-148.15;100.00;61821.78;4996453;28;20529;-94
2024/01/06 17:28:12;;;;;;;9.17;6.50;;;;;;;-148.15;100.00;61821.78;5003974;28;20026;-92
2024/01/06 17:30:38;;;;;;;11.47;6.63;;;;;;;-148.15;100.00;61821.78;5002272;28;20273;-91
2024/01/06 17:33:03;;;;;;;9.67;7.00;;;;;;;-148.15;100.00;61821.78;5002921;28;20039;-93
2024/01/06 17:35:40;;;;;;;11.97;6.67;;;;;;;-148.15;100.00;61821.78;5000047;28;20018;-95
2024/01/06 17:38:56;;;;;;;8.23;6.55;;;;;;;-148.15;100.00;61821.78;4994030;28;20026;-95
2024/01/06 17:41:36;;;;;;;8.98;6.68;;;;;;;-148.15;100.00;61821.78;4993724;28;20050;-92
2024/01/06 17:48:23;;;;;;;;;;;;;;;;;;;;;
2024/01/06 17:51:30;;;;;;;11.27;6.20;;;;;;;-148.15;100.00;61821.78;5002438;28;20469;-92
2024/01/06 17:58:00;;;;;;;11.15;6.63;;;;;;;-148.15;100.00;61821.78;4952204;28;20035;-94
2024/01/06 18:00:58;;;;;;;11.05;6.85;;;;;;;-148.15;100.00;61821.78;4937358;29;20035;-94